<?xml version="1.0" encoding="UTF-8" standalone="no" ?>
<gpx xmlns="http://www.topografix.com/GPX/1/1" xmlns:xsi="http://www.w3.org/2001/XMLSchema-instance" xsi:schemaLocation="http://www.topografix.com/GPX/1/1 http://www.topografix.com/GPX/1/1/gpx.xsd" version="1.1" creator="VisuGPX - https://www.visugpx.com">
  <metadata>
    <name>Transcaucasie: Géorgie + Arménie</name>
  </metadata>
  <trk>
    <name><![CDATA[Tour d'Europe: étape 448]]></name>
    <extensions>
      <line xmlns="http://www.topografix.com/GPX/gpx_style/0/2">
        <color>000088</color>
        <width>4</width>
      </line>
    </extensions>
    <trkseg>
      <trkpt lat="42.91502" lon="43.01616">
        <ele>2172.717017</ele>
        <time>2021-09-19T05:53:59.115Z</time>
      </trkpt>
      <trkpt lat="42.91518" lon="43.01806">
        <ele>2171.826044</ele>
        <time>2021-09-19T05:55:13.502Z</time>
      </trkpt>
      <trkpt lat="42.91452" lon="43.0207">
        <ele>2175.954887</ele>
        <time>2021-09-19T05:56:17.466Z</time>
      </trkpt>
      <trkpt lat="42.91392" lon="43.02351">
        <ele>2191.042884</ele>
        <time>2021-09-19T05:57:03.474Z</time>
      </trkpt>
      <trkpt lat="42.91345" lon="43.02638">
        <ele>2204.977776</ele>
        <time>2021-09-19T05:57:45.470Z</time>
      </trkpt>
      <trkpt lat="42.91166" lon="43.03007">
        <ele>2236.67853</ele>
        <time>2021-09-19T05:58:58.889Z</time>
      </trkpt>
      <trkpt lat="42.91055" lon="43.03682">
        <ele>2241.975521</ele>
        <time>2021-09-19T06:00:48.833Z</time>
      </trkpt>
      <trkpt lat="42.91016" lon="43.04493">
        <ele>2262.813886</ele>
        <time>2021-09-19T06:02:51.655Z</time>
      </trkpt>
      <trkpt lat="42.91048" lon="43.04786">
        <ele>2294.772985</ele>
        <time>2021-09-19T06:03:39.827Z</time>
      </trkpt>
      <trkpt lat="42.91205" lon="43.0503">
        <ele>2302.059221</ele>
        <time>2021-09-19T06:04:23.838Z</time>
      </trkpt>
      <trkpt lat="42.91239" lon="43.0537">
        <ele>2309.776229</ele>
        <time>2021-09-19T06:05:11.847Z</time>
      </trkpt>
      <trkpt lat="42.91269" lon="43.05663">
        <ele>2314.678117</ele>
        <time>2021-09-19T06:05:58.850Z</time>
      </trkpt>
      <trkpt lat="42.91134" lon="43.05957">
        <ele>2316.635723</ele>
        <time>2021-09-19T06:06:46.819Z</time>
      </trkpt>
      <trkpt lat="42.91065" lon="43.06271">
        <ele>2331.984437</ele>
        <time>2021-09-19T06:07:52.835Z</time>
      </trkpt>
      <trkpt lat="42.91046" lon="43.06611">
        <ele>2358.140652</ele>
        <time>2021-09-19T06:08:32.832Z</time>
      </trkpt>
      <trkpt lat="42.91049" lon="43.06935">
        <ele>2387.062337</ele>
        <time>2021-09-19T06:09:17.841Z</time>
      </trkpt>
      <trkpt lat="42.91146" lon="43.07209">
        <ele>2412.238532</ele>
        <time>2021-09-19T06:10:00.840Z</time>
      </trkpt>
      <trkpt lat="42.91203" lon="43.07503">
        <ele>2440.435231</ele>
        <time>2021-09-19T06:10:49.831Z</time>
      </trkpt>
      <trkpt lat="42.91265" lon="43.07816">
        <ele>2463.66061</ele>
        <time>2021-09-19T06:11:29.829Z</time>
      </trkpt>
      <trkpt lat="42.91273" lon="43.08091">
        <ele>2486.551141</ele>
        <time>2021-09-19T06:12:15.834Z</time>
      </trkpt>
      <trkpt lat="42.91226" lon="43.08366">
        <ele>2512.515684</ele>
        <time>2021-09-19T06:13:05.825Z</time>
      </trkpt>
      <trkpt lat="42.91299" lon="43.08627">
        <ele>2537.868381</ele>
        <time>2021-09-19T06:13:53.832Z</time>
      </trkpt>
      <trkpt lat="42.91402" lon="43.08953">
        <ele>2560.639603</ele>
        <time>2021-09-19T06:14:33.835Z</time>
      </trkpt>
      <trkpt lat="42.91425" lon="43.09293">
        <ele>2577.172078</ele>
        <time>2021-09-19T06:15:19.819Z</time>
      </trkpt>
      <trkpt lat="42.91496" lon="43.09624">
        <ele>2604.374039</ele>
        <time>2021-09-19T06:16:01.833Z</time>
      </trkpt>
      <trkpt lat="42.91529" lon="43.09968">
        <ele>2616.006347</ele>
        <time>2021-09-19T06:16:52.833Z</time>
      </trkpt>
      <trkpt lat="42.91555" lon="43.10346">
        <ele>2625.228913</ele>
        <time>2021-09-19T06:17:31.841Z</time>
      </trkpt>
      <trkpt lat="42.91566" lon="43.10635">
        <ele>2610.118514</ele>
        <time>2021-09-19T07:10:17.828Z</time>
      </trkpt>
      <trkpt lat="42.91704" lon="43.10864">
        <ele>2589.068687</ele>
        <time>2021-09-19T07:15:41.833Z</time>
      </trkpt>
      <trkpt lat="42.91794" lon="43.11114">
        <ele>2564.466143</ele>
        <time>2021-09-19T07:17:05.846Z</time>
      </trkpt>
      <trkpt lat="42.91863" lon="43.11376">
        <ele>2538.457975</ele>
        <time>2021-09-19T07:18:26.832Z</time>
      </trkpt>
      <trkpt lat="42.91946" lon="43.1164">
        <ele>2513.002899</ele>
        <time>2021-09-19T07:22:36.829Z</time>
      </trkpt>
      <trkpt lat="42.92018" lon="43.119">
        <ele>2491.839245</ele>
        <time>2021-09-19T07:24:05.865Z</time>
      </trkpt>
      <trkpt lat="42.92168" lon="43.11883">
        <ele>2472.255267</ele>
        <time>2021-09-19T07:34:45.831Z</time>
      </trkpt>
      <trkpt lat="42.92312" lon="43.11723">
        <ele>2444.264472</ele>
        <time>2021-09-19T07:36:25.886Z</time>
      </trkpt>
      <trkpt lat="42.92396" lon="43.11454">
        <ele>2416.59452</ele>
        <time>2021-09-19T07:38:08.842Z</time>
      </trkpt>
      <trkpt lat="42.92548" lon="43.1127">
        <ele>2391.297863</ele>
        <time>2021-09-19T07:39:46.892Z</time>
      </trkpt>
      <trkpt lat="42.92741" lon="43.11285">
        <ele>2364.230897</ele>
        <time>2021-09-19T07:41:05.846Z</time>
      </trkpt>
      <trkpt lat="42.92748" lon="43.11551">
        <ele>2339.664052</ele>
        <time>2021-09-19T07:43:36.847Z</time>
      </trkpt>
      <trkpt lat="42.92716" lon="43.11831">
        <ele>2316.044537</ele>
        <time>2021-09-19T07:44:55.843Z</time>
      </trkpt>
      <trkpt lat="42.92656" lon="43.12115">
        <ele>2304.966648</ele>
        <time>2021-09-19T07:47:15.869Z</time>
      </trkpt>
      <trkpt lat="42.92657" lon="43.12372">
        <ele>2305.963778</ele>
        <time>2021-09-19T07:48:58.839Z</time>
      </trkpt>
      <trkpt lat="42.92516" lon="43.12571">
        <ele>2300.288957</ele>
        <time>2021-09-19T07:50:24.839Z</time>
      </trkpt>
      <trkpt lat="42.92379" lon="43.1278">
        <ele>2287.949021</ele>
        <time>2021-09-19T07:51:47.842Z</time>
      </trkpt>
      <trkpt lat="42.9244" lon="43.12898">
        <ele>2274.115159</ele>
        <time>2021-09-19T07:53:18.838Z</time>
      </trkpt>
      <trkpt lat="42.92431" lon="43.12993">
        <ele>2271.26372</ele>
        <time>2021-09-19T07:54:54.866Z</time>
      </trkpt>
      <trkpt lat="42.92249" lon="43.13092">
        <ele>2263.548335</ele>
        <time>2021-09-19T07:56:23.842Z</time>
      </trkpt>
      <trkpt lat="42.92147" lon="43.13327">
        <ele>2246.884455</ele>
        <time>2021-09-19T07:57:48.837Z</time>
      </trkpt>
      <trkpt lat="42.92023" lon="43.1355">
        <ele>2233.31695</ele>
        <time>2021-09-19T07:59:14.847Z</time>
      </trkpt>
      <trkpt lat="42.91903" lon="43.13762">
        <ele>2222.985626</ele>
        <time>2021-09-19T08:00:35.828Z</time>
      </trkpt>
      <trkpt lat="42.91853" lon="43.13863">
        <ele>2205.068919</ele>
        <time>2021-09-19T08:06:38.875Z</time>
      </trkpt>
      <trkpt lat="42.91655" lon="43.13859">
        <ele>2183.463814</ele>
        <time>2021-09-19T08:08:04.869Z</time>
      </trkpt>
      <trkpt lat="42.91803" lon="43.13948">
        <ele>2161.845624</ele>
        <time>2021-09-19T08:09:41.892Z</time>
      </trkpt>
      <trkpt lat="42.91994" lon="43.14037">
        <ele>2134.560998</ele>
        <time>2021-09-19T08:11:20.856Z</time>
      </trkpt>
      <trkpt lat="42.92002" lon="43.14106">
        <ele>2118.666365</ele>
        <time>2021-09-19T08:13:05.860Z</time>
      </trkpt>
      <trkpt lat="42.91847" lon="43.14132">
        <ele>2092.404875</ele>
        <time>2021-09-19T08:14:40.863Z</time>
      </trkpt>
      <trkpt lat="42.92035" lon="43.14211">
        <ele>2065.925755</ele>
        <time>2021-09-19T08:16:16.863Z</time>
      </trkpt>
      <trkpt lat="42.92178" lon="43.1436">
        <ele>2046.29836</ele>
        <time>2021-09-19T08:17:52.858Z</time>
      </trkpt>
      <trkpt lat="42.9197" lon="43.14284">
        <ele>2022.023943</ele>
        <time>2021-09-19T08:27:25.836Z</time>
      </trkpt>
      <trkpt lat="42.9177" lon="43.14275">
        <ele>2005.635289</ele>
        <time>2021-09-19T08:28:51.867Z</time>
      </trkpt>
      <trkpt lat="42.91569" lon="43.14266">
        <ele>1988.717972</ele>
        <time>2021-09-19T08:30:09.881Z</time>
      </trkpt>
      <trkpt lat="42.91377" lon="43.14219">
        <ele>1979.946105</ele>
        <time>2021-09-19T08:31:21.892Z</time>
      </trkpt>
      <trkpt lat="42.91181" lon="43.14275">
        <ele>1957.768221</ele>
        <time>2021-09-19T08:32:53.849Z</time>
      </trkpt>
      <trkpt lat="42.91026" lon="43.14332">
        <ele>1933.898703</ele>
        <time>2021-09-19T08:34:36.843Z</time>
      </trkpt>
      <trkpt lat="42.90871" lon="43.14232">
        <ele>1911.939947</ele>
        <time>2021-09-19T08:36:15.844Z</time>
      </trkpt>
      <trkpt lat="42.90662" lon="43.14182">
        <ele>1890.02052</ele>
        <time>2021-09-19T08:37:43.850Z</time>
      </trkpt>
      <trkpt lat="42.90462" lon="43.1423">
        <ele>1875.11839</ele>
        <time>2021-09-19T08:39:06.852Z</time>
      </trkpt>
      <trkpt lat="42.90277" lon="43.14162">
        <ele>1864.174889</ele>
        <time>2021-09-19T08:40:39.854Z</time>
      </trkpt>
      <trkpt lat="42.90116" lon="43.14228">
        <ele>1847.62984</ele>
        <time>2021-09-19T08:42:24.849Z</time>
      </trkpt>
      <trkpt lat="42.89926" lon="43.14262">
        <ele>1833.091381</ele>
        <time>2021-09-19T08:44:03.857Z</time>
      </trkpt>
      <trkpt lat="42.89734" lon="43.14313">
        <ele>1822.361802</ele>
        <time>2021-09-19T08:45:29.844Z</time>
      </trkpt>
      <trkpt lat="42.89535" lon="43.14342">
        <ele>1822.836544</ele>
        <time>2021-09-19T08:46:54.849Z</time>
      </trkpt>
      <trkpt lat="42.89342" lon="43.14372">
        <ele>1816.491986</ele>
        <time>2021-09-19T08:48:18.846Z</time>
      </trkpt>
      <trkpt lat="42.89163" lon="43.14257">
        <ele>1803.503823</ele>
        <time>2021-09-19T08:49:53.874Z</time>
      </trkpt>
      <trkpt lat="42.8898" lon="43.14266">
        <ele>1793.111745</ele>
        <time>2021-09-19T08:51:27.859Z</time>
      </trkpt>
      <trkpt lat="42.88795" lon="43.14338">
        <ele>1769.292678</ele>
        <time>2021-09-19T08:53:10.829Z</time>
      </trkpt>
      <trkpt lat="42.88619" lon="43.14441">
        <ele>1750.470033</ele>
        <time>2021-09-19T08:54:53.876Z</time>
      </trkpt>
      <trkpt lat="42.88431" lon="43.14522">
        <ele>1735.18676</ele>
        <time>2021-09-19T08:56:35.880Z</time>
      </trkpt>
      <trkpt lat="42.88246" lon="43.14642">
        <ele>1726.987759</ele>
        <time>2021-09-19T08:57:59.853Z</time>
      </trkpt>
      <trkpt lat="42.88088" lon="43.14805">
        <ele>1719.688935</ele>
        <time>2021-09-19T08:59:15.856Z</time>
      </trkpt>
      <trkpt lat="42.87889" lon="43.14923">
        <ele>1701.807813</ele>
        <time>2021-09-19T09:00:46.850Z</time>
      </trkpt>
      <trkpt lat="42.87683" lon="43.14918">
        <ele>1682.671183</ele>
        <time>2021-09-19T09:02:15.863Z</time>
      </trkpt>
      <trkpt lat="42.87498" lon="43.15024">
        <ele>1663.863068</ele>
        <time>2021-09-19T09:03:34.876Z</time>
      </trkpt>
      <trkpt lat="42.87404" lon="43.15254">
        <ele>1639.104512</ele>
        <time>2021-09-19T09:04:45.838Z</time>
      </trkpt>
      <trkpt lat="42.87447" lon="43.14989">
        <ele>1613.732103</ele>
        <time>2021-09-19T09:06:01.846Z</time>
      </trkpt>
      <trkpt lat="42.87394" lon="43.14994">
        <ele>1608.13349</ele>
        <time>2021-09-19T09:07:31.879Z</time>
      </trkpt>
      <trkpt lat="42.87312" lon="43.15245">
        <ele>1604.864143</ele>
        <time>2021-09-19T09:09:03.851Z</time>
      </trkpt>
      <trkpt lat="42.87167" lon="43.15433">
        <ele>1593.457286</ele>
        <time>2021-09-19T09:10:27.848Z</time>
      </trkpt>
      <trkpt lat="42.87011" lon="43.15619">
        <ele>1571.703039</ele>
        <time>2021-09-19T09:11:52.852Z</time>
      </trkpt>
      <trkpt lat="42.86897" lon="43.15839">
        <ele>1569.858111</ele>
        <time>2021-09-19T09:13:06.858Z</time>
      </trkpt>
      <trkpt lat="42.86734" lon="43.15985">
        <ele>1553.529585</ele>
        <time>2021-09-19T09:14:30.841Z</time>
      </trkpt>
      <trkpt lat="42.86591" lon="43.16184">
        <ele>1539.736737</ele>
        <time>2021-09-19T09:15:57.863Z</time>
      </trkpt>
      <trkpt lat="42.86424" lon="43.16274">
        <ele>1535.496677</ele>
        <time>2021-09-19T09:17:08.857Z</time>
      </trkpt>
      <trkpt lat="42.86233" lon="43.164">
        <ele>1534.346626</ele>
        <time>2021-09-19T09:18:06.859Z</time>
      </trkpt>
      <trkpt lat="42.86046" lon="43.16419">
        <ele>1537.353975</ele>
        <time>2021-09-19T09:19:13.859Z</time>
      </trkpt>
      <trkpt lat="42.85836" lon="43.16441">
        <ele>1556.758745</ele>
        <time>2021-09-19T09:21:06.859Z</time>
      </trkpt>
      <trkpt lat="42.85633" lon="43.16383">
        <ele>1537.857617</ele>
        <time>2021-09-19T09:24:58.855Z</time>
      </trkpt>
      <trkpt lat="42.85439" lon="43.16322">
        <ele>1521.526064</ele>
        <time>2021-09-19T09:26:26.859Z</time>
      </trkpt>
      <trkpt lat="42.85236" lon="43.16282">
        <ele>1518.623031</ele>
        <time>2021-09-19T09:27:44.864Z</time>
      </trkpt>
      <trkpt lat="42.85058" lon="43.16212">
        <ele>1520.02719</ele>
        <time>2021-09-19T09:29:11.860Z</time>
      </trkpt>
      <trkpt lat="42.84866" lon="43.16145">
        <ele>1535.158874</ele>
        <time>2021-09-19T09:30:45.849Z</time>
      </trkpt>
      <trkpt lat="42.84685" lon="43.16065">
        <ele>1505.995837</ele>
        <time>2021-09-19T09:32:01.861Z</time>
      </trkpt>
      <trkpt lat="42.84505" lon="43.15954">
        <ele>1487.284622</ele>
        <time>2021-09-19T09:33:40.855Z</time>
      </trkpt>
      <trkpt lat="42.8431" lon="43.15916">
        <ele>1486.49776</ele>
        <time>2021-09-19T09:34:52.866Z</time>
      </trkpt>
      <trkpt lat="42.84095" lon="43.15921">
        <ele>1488.133249</ele>
        <time>2021-09-19T09:35:35.866Z</time>
      </trkpt>
      <trkpt lat="42.83875" lon="43.15945">
        <ele>1493.2866</ele>
        <time>2021-09-19T09:36:16.840Z</time>
      </trkpt>
      <trkpt lat="42.83636" lon="43.15985">
        <ele>1484.835423</ele>
        <time>2021-09-19T09:36:58.858Z</time>
      </trkpt>
      <trkpt lat="42.83392" lon="43.16009">
        <ele>1474.299589</ele>
        <time>2021-09-19T09:37:38.857Z</time>
      </trkpt>
      <trkpt lat="42.83182" lon="43.15976">
        <ele>1469.387374</ele>
        <time>2021-09-19T09:38:28.837Z</time>
      </trkpt>
      <trkpt lat="42.82961" lon="43.15876">
        <ele>1465.962769</ele>
        <time>2021-09-19T09:39:17.890Z</time>
      </trkpt>
      <trkpt lat="42.82751" lon="43.15841">
        <ele>1490.851563</ele>
        <time>2021-09-19T09:40:34.886Z</time>
      </trkpt>
      <trkpt lat="42.82537" lon="43.15786">
        <ele>1479.578904</ele>
        <time>2021-09-19T09:41:29.877Z</time>
      </trkpt>
      <trkpt lat="42.8238" lon="43.1561">
        <ele>1415.760881</ele>
        <time>2021-09-19T09:42:39.872Z</time>
      </trkpt>
      <trkpt lat="42.82182" lon="43.15445">
        <ele>1413.181096</ele>
        <time>2021-09-19T09:43:28.863Z</time>
      </trkpt>
      <trkpt lat="42.81985" lon="43.15364">
        <ele>1439.01648</ele>
        <time>2021-09-19T09:51:46.855Z</time>
      </trkpt>
      <trkpt lat="42.81948" lon="43.15147">
        <ele>1435.829215</ele>
        <time>2021-09-19T09:52:56.880Z</time>
      </trkpt>
      <trkpt lat="42.82038" lon="43.14884">
        <ele>1432.06594</ele>
        <time>2021-09-19T09:53:51.862Z</time>
      </trkpt>
      <trkpt lat="42.82072" lon="43.14605">
        <ele>1424.613338</ele>
        <time>2021-09-19T09:54:32.899Z</time>
      </trkpt>
      <trkpt lat="42.82012" lon="43.14339">
        <ele>1413.915535</ele>
        <time>2021-09-19T09:55:49.871Z</time>
      </trkpt>
      <trkpt lat="42.82123" lon="43.14093">
        <ele>1413.523517</ele>
        <time>2021-09-19T09:57:05.849Z</time>
      </trkpt>
      <trkpt lat="42.82252" lon="43.13869">
        <ele>1416.389297</ele>
        <time>2021-09-19T09:58:16.855Z</time>
      </trkpt>
      <trkpt lat="42.82325" lon="43.13603">
        <ele>1416.773283</ele>
        <time>2021-09-19T09:59:25.860Z</time>
      </trkpt>
      <trkpt lat="42.82422" lon="43.13394">
        <ele>1427.933287</ele>
        <time>2021-09-19T10:01:51.831Z</time>
      </trkpt>
      <trkpt lat="42.82512" lon="43.13123">
        <ele>1430.98041</ele>
        <time>2021-09-19T10:03:02.861Z</time>
      </trkpt>
      <trkpt lat="42.82524" lon="43.12781">
        <ele>1402.63384</ele>
        <time>2021-09-19T10:03:42.852Z</time>
      </trkpt>
      <trkpt lat="42.82344" lon="43.12493">
        <ele>1385.248975</ele>
        <time>2021-09-19T10:04:22.905Z</time>
      </trkpt>
      <trkpt lat="42.82114" lon="43.12282">
        <ele>1379.46417</ele>
        <time>2021-09-19T10:05:04.859Z</time>
      </trkpt>
      <trkpt lat="42.81964" lon="43.12074">
        <ele>1383.792055</ele>
        <time>2021-09-19T10:06:03.859Z</time>
      </trkpt>
      <trkpt lat="42.81858" lon="43.11832">
        <ele>1387.728021</ele>
        <time>2021-09-19T10:07:34.849Z</time>
      </trkpt>
      <trkpt lat="42.81664" lon="43.1166">
        <ele>1386.702317</ele>
        <time>2021-09-19T10:08:28.863Z</time>
      </trkpt>
      <trkpt lat="42.81457" lon="43.11559">
        <ele>1397.42674</ele>
        <time>2021-09-19T10:09:42.872Z</time>
      </trkpt>
      <trkpt lat="42.8128" lon="43.11379">
        <ele>1393.252528</ele>
        <time>2021-09-19T10:10:46.841Z</time>
      </trkpt>
      <trkpt lat="42.81148" lon="43.11119">
        <ele>1372.590878</ele>
        <time>2021-09-19T10:11:26.854Z</time>
      </trkpt>
      <trkpt lat="42.80935" lon="43.10983">
        <ele>1356.424978</ele>
        <time>2021-09-19T10:12:08.858Z</time>
      </trkpt>
      <trkpt lat="42.80806" lon="43.10779">
        <ele>1352.13935</ele>
        <time>2021-09-19T10:12:48.869Z</time>
      </trkpt>
      <trkpt lat="42.8068" lon="43.10586">
        <ele>1352.008571</ele>
        <time>2021-09-19T10:13:31.855Z</time>
      </trkpt>
      <trkpt lat="42.8065" lon="43.10537">
        <ele>1346.094804</ele>
        <time>2021-09-19T10:15:10.861Z</time>
      </trkpt>
      <trkpt lat="42.8052" lon="43.10322">
        <ele>1344.471583</ele>
        <time>2021-09-19T10:16:17.888Z</time>
      </trkpt>
      <trkpt lat="42.80423" lon="43.10099">
        <ele>1346.142786</ele>
        <time>2021-09-19T10:18:06.862Z</time>
      </trkpt>
      <trkpt lat="42.80283" lon="43.09918">
        <ele>1357.14984</ele>
        <time>2021-09-19T10:20:12.884Z</time>
      </trkpt>
      <trkpt lat="42.80199" lon="43.09677">
        <ele>1348.730684</ele>
        <time>2021-09-19T10:21:23.870Z</time>
      </trkpt>
      <trkpt lat="42.80179" lon="43.09381">
        <ele>1354.054358</ele>
        <time>2021-09-19T10:22:37.870Z</time>
      </trkpt>
      <trkpt lat="42.80118" lon="43.09105">
        <ele>1355.428769</ele>
        <time>2021-09-19T10:25:04.849Z</time>
      </trkpt>
      <trkpt lat="42.80113" lon="43.08838">
        <ele>1360.243465</ele>
        <time>2021-09-19T10:26:27.887Z</time>
      </trkpt>
      <trkpt lat="42.79966" lon="43.08631">
        <ele>1360.269077</ele>
        <time>2021-09-19T10:27:23.857Z</time>
      </trkpt>
      <trkpt lat="42.79753" lon="43.08553">
        <ele>1346.320097</ele>
        <time>2021-09-19T10:28:01.867Z</time>
      </trkpt>
      <trkpt lat="42.79616" lon="43.08291">
        <ele>1330.184281</ele>
        <time>2021-09-19T10:29:00.890Z</time>
      </trkpt>
      <trkpt lat="42.79405" lon="43.08072">
        <ele>1324.87582</ele>
        <time>2021-09-19T10:29:37.881Z</time>
      </trkpt>
      <trkpt lat="42.79437" lon="43.07736">
        <ele>1317.170032</ele>
        <time>2021-09-19T10:30:25.859Z</time>
      </trkpt>
      <trkpt lat="42.79457" lon="43.07417">
        <ele>1311.667454</ele>
        <time>2021-09-19T10:31:01.858Z</time>
      </trkpt>
      <trkpt lat="42.79453" lon="43.0709">
        <ele>1306.871329</ele>
        <time>2021-09-19T10:31:42.849Z</time>
      </trkpt>
      <trkpt lat="42.79467" lon="43.06752">
        <ele>1304.174319</ele>
        <time>2021-09-19T10:32:25.856Z</time>
      </trkpt>
      <trkpt lat="42.79466" lon="43.06416">
        <ele>1304.958505</ele>
        <time>2021-09-19T10:33:11.865Z</time>
      </trkpt>
      <trkpt lat="42.79411" lon="43.06128">
        <ele>1294.771507</ele>
        <time>2021-09-19T10:33:52.869Z</time>
      </trkpt>
      <trkpt lat="42.79372" lon="43.05775">
        <ele>1285.70711</ele>
        <time>2021-09-19T10:34:32.852Z</time>
      </trkpt>
      <trkpt lat="42.79335" lon="43.05477">
        <ele>1281.52947</ele>
        <time>2021-09-19T10:35:20.867Z</time>
      </trkpt>
      <trkpt lat="42.79284" lon="43.05164">
        <ele>1286.42614</ele>
        <time>2021-09-19T10:36:21.904Z</time>
      </trkpt>
      <trkpt lat="42.79311" lon="43.04873">
        <ele>1295.489239</ele>
        <time>2021-09-19T10:37:35.858Z</time>
      </trkpt>
      <trkpt lat="42.7935" lon="43.0459">
        <ele>1295.30872</ele>
        <time>2021-09-19T10:38:22.858Z</time>
      </trkpt>
      <trkpt lat="42.79384" lon="43.04302">
        <ele>1295.222854</ele>
        <time>2021-09-19T10:39:12.861Z</time>
      </trkpt>
      <trkpt lat="42.79373" lon="43.04032">
        <ele>1299.556054</ele>
        <time>2021-09-19T10:41:10.873Z</time>
      </trkpt>
      <trkpt lat="42.79368" lon="43.03734">
        <ele>1295.553936</ele>
        <time>2021-09-19T10:42:31.880Z</time>
      </trkpt>
      <trkpt lat="42.79365" lon="43.03441">
        <ele>1286.467789</ele>
        <time>2021-09-19T10:42:51.852Z</time>
      </trkpt>
      <trkpt lat="42.79394" lon="43.03058">
        <ele>1280.236108</ele>
        <time>2021-09-19T10:43:32.848Z</time>
      </trkpt>
      <trkpt lat="42.79387" lon="43.0277">
        <ele>1292.435635</ele>
        <time>2021-09-19T10:44:42.848Z</time>
      </trkpt>
      <trkpt lat="42.79411" lon="43.02498">
        <ele>1307.362584</ele>
        <time>2021-09-19T10:46:34.866Z</time>
      </trkpt>
      <trkpt lat="42.79446" lon="43.02254">
        <ele>1309.738091</ele>
        <time>2021-09-19T10:48:48.852Z</time>
      </trkpt>
      <trkpt lat="42.79479" lon="43.02003">
        <ele>1324.76891</ele>
        <time>2021-09-19T10:50:54.856Z</time>
      </trkpt>
      <trkpt lat="42.79436" lon="43.01744">
        <ele>1333.821633</ele>
        <time>2021-09-19T10:52:55.861Z</time>
      </trkpt>
      <trkpt lat="42.7931" lon="43.01478">
        <ele>1316.81446</ele>
        <time>2021-09-19T10:53:38.875Z</time>
      </trkpt>
      <trkpt lat="42.7919" lon="43.01186">
        <ele>1297.679828</ele>
        <time>2021-09-19T10:54:07.873Z</time>
      </trkpt>
      <trkpt lat="42.79024" lon="43.00843">
        <ele>1267.187193</ele>
        <time>2021-09-19T10:54:48.860Z</time>
      </trkpt>
      <trkpt lat="42.78992" lon="43.00669">
        <ele>1241.578172</ele>
        <time>2021-09-19T10:55:28.855Z</time>
      </trkpt>
      <trkpt lat="42.78848" lon="43.00403">
        <ele>1226.259607</ele>
        <time>2021-09-19T10:56:07.873Z</time>
      </trkpt>
      <trkpt lat="42.78897" lon="43.00117">
        <ele>1227.240227</ele>
        <time>2021-09-19T10:57:03.902Z</time>
      </trkpt>
      <trkpt lat="42.79011" lon="42.99836">
        <ele>1219.481508</ele>
        <time>2021-09-19T10:58:06.859Z</time>
      </trkpt>
      <trkpt lat="42.79191" lon="42.99527">
        <ele>1204.950905</ele>
        <time>2021-09-19T10:58:41.856Z</time>
      </trkpt>
      <trkpt lat="42.79287" lon="42.99249">
        <ele>1199.048326</ele>
        <time>2021-09-19T10:59:30.873Z</time>
      </trkpt>
      <trkpt lat="42.79354" lon="42.98962">
        <ele>1200.380266</ele>
        <time>2021-09-19T11:00:26.876Z</time>
      </trkpt>
      <trkpt lat="42.79453" lon="42.9868">
        <ele>1197.247982</ele>
        <time>2021-09-19T11:01:21.891Z</time>
      </trkpt>
      <trkpt lat="42.79568" lon="42.98425">
        <ele>1192.271931</ele>
        <time>2021-09-19T11:02:07.870Z</time>
      </trkpt>
      <trkpt lat="42.79609" lon="42.98132">
        <ele>1194.844677</ele>
        <time>2021-09-19T11:03:14.863Z</time>
      </trkpt>
      <trkpt lat="42.79739" lon="42.97858">
        <ele>1191.145</ele>
        <time>2021-09-19T11:03:46.859Z</time>
      </trkpt>
      <trkpt lat="42.79965" lon="42.97569">
        <ele>1179.221796</ele>
        <time>2021-09-19T11:04:26.853Z</time>
      </trkpt>
      <trkpt lat="42.80211" lon="42.97363">
        <ele>1175.614933</ele>
        <time>2021-09-19T11:05:00.895Z</time>
      </trkpt>
      <trkpt lat="42.80446" lon="42.9719">
        <ele>1172.059324</ele>
        <time>2021-09-19T11:05:40.865Z</time>
      </trkpt>
      <trkpt lat="42.80673" lon="42.97095">
        <ele>1175.870515</ele>
        <time>2021-09-19T11:10:12.901Z</time>
      </trkpt>
      <trkpt lat="42.80858" lon="42.96983">
        <ele>1180.626752</ele>
        <time>2021-09-19T11:11:51.848Z</time>
      </trkpt>
      <trkpt lat="42.80993" lon="42.96775">
        <ele>1179.692786</ele>
        <time>2021-09-19T11:13:32.867Z</time>
      </trkpt>
      <trkpt lat="42.8117" lon="42.96562">
        <ele>1172.212975</ele>
        <time>2021-09-19T11:14:02.862Z</time>
      </trkpt>
      <trkpt lat="42.81407" lon="42.96456">
        <ele>1172.946213</ele>
        <time>2021-09-19T11:14:55.876Z</time>
      </trkpt>
      <trkpt lat="42.81578" lon="42.96241">
        <ele>1162.259198</ele>
        <time>2021-09-19T11:15:24.862Z</time>
      </trkpt>
      <trkpt lat="42.8174" lon="42.95961">
        <ele>1153.387498</ele>
        <time>2021-09-19T11:16:03.863Z</time>
      </trkpt>
      <trkpt lat="42.81983" lon="42.95788">
        <ele>1160.694125</ele>
        <time>2021-09-19T11:16:41.882Z</time>
      </trkpt>
      <trkpt lat="42.82157" lon="42.95602">
        <ele>1165.843029</ele>
        <time>2021-09-19T11:17:52.859Z</time>
      </trkpt>
      <trkpt lat="42.82278" lon="42.95382">
        <ele>1158.12884</ele>
        <time>2021-09-19T11:19:07.867Z</time>
      </trkpt>
      <trkpt lat="42.82477" lon="42.95241">
        <ele>1146.503115</ele>
        <time>2021-09-19T11:20:05.870Z</time>
      </trkpt>
      <trkpt lat="42.82647" lon="42.9506">
        <ele>1136.447824</ele>
        <time>2021-09-19T11:21:02.868Z</time>
      </trkpt>
      <trkpt lat="42.8277" lon="42.94827">
        <ele>1147.487412</ele>
        <time>2021-09-19T11:22:16.858Z</time>
      </trkpt>
      <trkpt lat="42.82875" lon="42.94551">
        <ele>1143.101345</ele>
        <time>2021-09-19T11:23:00.885Z</time>
      </trkpt>
      <trkpt lat="42.82849" lon="42.9425">
        <ele>1133.218595</ele>
        <time>2021-09-19T11:23:41.866Z</time>
      </trkpt>
      <trkpt lat="42.82905" lon="42.93903">
        <ele>1123.802675</ele>
        <time>2021-09-19T11:24:23.853Z</time>
      </trkpt>
      <trkpt lat="42.83002" lon="42.93651">
        <ele>1122.068321</ele>
        <time>2021-09-19T11:25:16.864Z</time>
      </trkpt>
      <trkpt lat="42.83108" lon="42.93381">
        <ele>1126.652904</ele>
        <time>2021-09-19T11:26:11.866Z</time>
      </trkpt>
      <trkpt lat="42.83169" lon="42.93094">
        <ele>1121.73352</ele>
        <time>2021-09-19T11:26:54.871Z</time>
      </trkpt>
      <trkpt lat="42.8321" lon="42.92799">
        <ele>1121.80611</ele>
        <time>2021-09-19T11:27:45.870Z</time>
      </trkpt>
      <trkpt lat="42.83261" lon="42.92522">
        <ele>1124.138899</ele>
        <time>2021-09-19T11:28:37.857Z</time>
      </trkpt>
      <trkpt lat="42.83343" lon="42.92269">
        <ele>1115.975</ele>
        <time>2021-09-19T11:29:59.852Z</time>
      </trkpt>
      <trkpt lat="42.83432" lon="42.91967">
        <ele>1112.871026</ele>
        <time>2021-09-19T11:30:52.863Z</time>
      </trkpt>
      <trkpt lat="42.83493" lon="42.91633">
        <ele>1112.135078</ele>
        <time>2021-09-19T11:31:46.868Z</time>
      </trkpt>
      <trkpt lat="42.83453" lon="42.91286">
        <ele>1100.792462</ele>
        <time>2021-09-19T11:32:29.865Z</time>
      </trkpt>
      <trkpt lat="42.83385" lon="42.90985">
        <ele>1097.587616</ele>
        <time>2021-09-19T11:33:20.909Z</time>
      </trkpt>
      <trkpt lat="42.83405" lon="42.90696">
        <ele>1091.820593</ele>
        <time>2021-09-19T11:33:42.900Z</time>
      </trkpt>
      <trkpt lat="42.8345" lon="42.90356">
        <ele>1086.401495</ele>
        <time>2021-09-19T11:34:13.862Z</time>
      </trkpt>
      <trkpt lat="42.83559" lon="42.90124">
        <ele>1090.572371</ele>
        <time>2021-09-19T11:35:48.860Z</time>
      </trkpt>
      <trkpt lat="42.83727" lon="42.9">
        <ele>1096.967688</ele>
        <time>2021-09-19T11:37:43.868Z</time>
      </trkpt>
      <trkpt lat="42.83873" lon="42.89716">
        <ele>1093.809639</ele>
        <time>2021-09-19T11:38:27.871Z</time>
      </trkpt>
      <trkpt lat="42.83955" lon="42.8931">
        <ele>1079.150424</ele>
        <time>2021-09-19T11:39:06.870Z</time>
      </trkpt>
      <trkpt lat="42.83933" lon="42.8899">
        <ele>1071.319397</ele>
        <time>2021-09-19T11:39:47.868Z</time>
      </trkpt>
      <trkpt lat="42.83881" lon="42.88709">
        <ele>1081.760395</ele>
        <time>2021-09-19T11:40:58.870Z</time>
      </trkpt>
      <trkpt lat="42.83901" lon="42.88355">
        <ele>1084.242566</ele>
        <time>2021-09-19T11:41:46.864Z</time>
      </trkpt>
      <trkpt lat="42.8399" lon="42.88119">
        <ele>1091.519886</ele>
        <time>2021-09-19T11:43:33.857Z</time>
      </trkpt>
      <trkpt lat="42.84059" lon="42.87782">
        <ele>1078.156468</ele>
        <time>2021-09-19T11:44:19.869Z</time>
      </trkpt>
      <trkpt lat="42.84176" lon="42.87489">
        <ele>1066.127231</ele>
        <time>2021-09-19T11:44:50.888Z</time>
      </trkpt>
      <trkpt lat="42.84296" lon="42.87246">
        <ele>1065.039839</ele>
        <time>2021-09-19T11:46:20.871Z</time>
      </trkpt>
      <trkpt lat="42.84367" lon="42.86951">
        <ele>1056.013112</ele>
        <time>2021-09-19T11:47:08.869Z</time>
      </trkpt>
      <trkpt lat="42.84302" lon="42.86623">
        <ele>1044.583331</ele>
        <time>2021-09-19T11:47:46.869Z</time>
      </trkpt>
      <trkpt lat="42.84337" lon="42.8632">
        <ele>1038.919788</ele>
        <time>2021-09-19T11:48:35.880Z</time>
      </trkpt>
      <trkpt lat="42.84441" lon="42.86068">
        <ele>1039.330028</ele>
        <time>2021-09-19T11:49:30.869Z</time>
      </trkpt>
      <trkpt lat="42.84583" lon="42.85835">
        <ele>1036.217386</ele>
        <time>2021-09-19T11:50:15.867Z</time>
      </trkpt>
      <trkpt lat="42.84659" lon="42.85532">
        <ele>1033.952437</ele>
        <time>2021-09-19T11:50:46.861Z</time>
      </trkpt>
      <trkpt lat="42.84708" lon="42.85262">
        <ele>1047.49261</ele>
        <time>2021-09-19T11:53:10.848Z</time>
      </trkpt>
      <trkpt lat="42.8469" lon="42.84991">
        <ele>1064.498164</ele>
        <time>2021-09-19T11:54:52.847Z</time>
      </trkpt>
      <trkpt lat="42.846" lon="42.84753">
        <ele>1070.058418</ele>
        <time>2021-09-19T11:56:28.873Z</time>
      </trkpt>
      <trkpt lat="42.84551" lon="42.8449">
        <ele>1072.789885</ele>
        <time>2021-09-19T11:58:13.871Z</time>
      </trkpt>
      <trkpt lat="42.8456" lon="42.84167">
        <ele>1071.151296</ele>
        <time>2021-09-19T11:59:04.900Z</time>
      </trkpt>
      <trkpt lat="42.84544" lon="42.8386">
        <ele>1057.95195</ele>
        <time>2021-09-19T11:59:30.864Z</time>
      </trkpt>
      <trkpt lat="42.8449" lon="42.83448">
        <ele>1030.720122</ele>
        <time>2021-09-19T12:00:07.910Z</time>
      </trkpt>
      <trkpt lat="42.84473" lon="42.83049">
        <ele>1010.691415</ele>
        <time>2021-09-19T12:00:47.858Z</time>
      </trkpt>
      <trkpt lat="42.84275" lon="42.828">
        <ele>1001.30438</ele>
        <time>2021-09-19T12:01:29.872Z</time>
      </trkpt>
      <trkpt lat="42.8415" lon="42.82517">
        <ele>1007.979381</ele>
        <time>2021-09-19T12:02:16.855Z</time>
      </trkpt>
      <trkpt lat="42.83994" lon="42.82322">
        <ele>1003.631843</ele>
        <time>2021-09-19T12:03:19.872Z</time>
      </trkpt>
      <trkpt lat="42.83841" lon="42.82098">
        <ele>992.673857</ele>
        <time>2021-09-19T12:04:07.868Z</time>
      </trkpt>
      <trkpt lat="42.8365" lon="42.81881">
        <ele>975.22375</ele>
        <time>2021-09-19T12:04:52.883Z</time>
      </trkpt>
      <trkpt lat="42.83477" lon="42.81715">
        <ele>949.491312</ele>
        <time>2021-09-19T12:05:48.863Z</time>
      </trkpt>
      <trkpt lat="42.83265" lon="42.81543">
        <ele>957.073161</ele>
        <time>2021-09-19T12:06:34.865Z</time>
      </trkpt>
      <trkpt lat="42.8307" lon="42.81457">
        <ele>965.30171</ele>
        <time>2021-09-19T12:08:02.870Z</time>
      </trkpt>
      <trkpt lat="42.82855" lon="42.81303">
        <ele>949.42883</ele>
        <time>2021-09-19T12:08:33.862Z</time>
      </trkpt>
      <trkpt lat="42.82727" lon="42.81029">
        <ele>926.822242</ele>
        <time>2021-09-19T12:09:07.863Z</time>
      </trkpt>
      <trkpt lat="42.82525" lon="42.80805">
        <ele>913.264526</ele>
        <time>2021-09-19T12:09:42.867Z</time>
      </trkpt>
      <trkpt lat="42.82392" lon="42.80536">
        <ele>909.090801</ele>
        <time>2021-09-19T12:10:26.874Z</time>
      </trkpt>
      <trkpt lat="42.82251" lon="42.80269">
        <ele>908.434395</ele>
        <time>2021-09-19T12:10:50.872Z</time>
      </trkpt>
      <trkpt lat="42.82141" lon="42.79968">
        <ele>901.292323</ele>
        <time>2021-09-19T12:11:16.898Z</time>
      </trkpt>
      <trkpt lat="42.82008" lon="42.79759">
        <ele>906.880203</ele>
        <time>2021-09-19T12:12:37.857Z</time>
      </trkpt>
      <trkpt lat="42.81891" lon="42.79472">
        <ele>903.671353</ele>
        <time>2021-09-19T12:13:27.868Z</time>
      </trkpt>
      <trkpt lat="42.81765" lon="42.79169">
        <ele>891.458844</ele>
        <time>2021-09-19T12:13:50.869Z</time>
      </trkpt>
      <trkpt lat="42.81637" lon="42.78944">
        <ele>887.73681</ele>
        <time>2021-09-19T12:14:50.868Z</time>
      </trkpt>
      <trkpt lat="42.8147" lon="42.78754">
        <ele>877.235639</ele>
        <time>2021-09-19T12:15:34.881Z</time>
      </trkpt>
      <trkpt lat="42.81297" lon="42.78538">
        <ele>869.499986</ele>
        <time>2021-09-19T12:16:19.875Z</time>
      </trkpt>
      <trkpt lat="42.81082" lon="42.78355">
        <ele>865.123821</ele>
        <time>2021-09-19T12:17:20.859Z</time>
      </trkpt>
      <trkpt lat="42.80891" lon="42.78129">
        <ele>855.358311</ele>
        <time>2021-09-19T12:17:53.901Z</time>
      </trkpt>
      <trkpt lat="42.80703" lon="42.77974">
        <ele>852.795255</ele>
        <time>2021-09-19T12:18:38.880Z</time>
      </trkpt>
      <trkpt lat="42.80486" lon="42.77771">
        <ele>842.364797</ele>
        <time>2021-09-19T12:19:14.908Z</time>
      </trkpt>
      <trkpt lat="42.80287" lon="42.77527">
        <ele>835.291031</ele>
        <time>2021-09-19T12:19:55.881Z</time>
      </trkpt>
      <trkpt lat="42.80231" lon="42.77216">
        <ele>831.240364</ele>
        <time>2021-09-19T12:20:36.864Z</time>
      </trkpt>
      <trkpt lat="42.8023" lon="42.76935">
        <ele>828.224923</ele>
        <time>2021-09-19T12:21:26.855Z</time>
      </trkpt>
      <trkpt lat="42.80286" lon="42.76641">
        <ele>830.429862</ele>
        <time>2021-09-19T12:36:02.874Z</time>
      </trkpt>
      <trkpt lat="42.8021" lon="42.76397">
        <ele>833.796197</ele>
        <time>2021-09-19T12:37:32.874Z</time>
      </trkpt>
      <trkpt lat="42.80165" lon="42.76128">
        <ele>829.763097</ele>
        <time>2021-09-19T12:39:01.880Z</time>
      </trkpt>
      <trkpt lat="42.80062" lon="42.75892">
        <ele>815.506912</ele>
        <time>2021-09-19T12:40:11.905Z</time>
      </trkpt>
      <trkpt lat="42.79864" lon="42.75865">
        <ele>815.703326</ele>
        <time>2021-09-19T12:41:33.866Z</time>
      </trkpt>
      <trkpt lat="42.7961" lon="42.75819">
        <ele>809.076561</ele>
        <time>2021-09-19T12:42:14.865Z</time>
      </trkpt>
      <trkpt lat="42.79432" lon="42.75541">
        <ele>791.483142</ele>
        <time>2021-09-19T12:42:54.905Z</time>
      </trkpt>
      <trkpt lat="42.79281" lon="42.7522">
        <ele>781.133967</ele>
        <time>2021-09-19T12:43:31.871Z</time>
      </trkpt>
      <trkpt lat="42.7921" lon="42.74942">
        <ele>784.862313</ele>
        <time>2021-09-19T12:44:28.856Z</time>
      </trkpt>
      <trkpt lat="42.79122" lon="42.74686">
        <ele>781.969364</ele>
        <time>2021-09-19T12:45:24.907Z</time>
      </trkpt>
      <trkpt lat="42.79073" lon="42.74378">
        <ele>769.799812</ele>
        <time>2021-09-19T12:46:16.863Z</time>
      </trkpt>
      <trkpt lat="42.79" lon="42.74006">
        <ele>764.343746</ele>
        <time>2021-09-19T12:46:58.917Z</time>
      </trkpt>
      <trkpt lat="42.79032" lon="42.73685">
        <ele>770.235283</ele>
        <time>2021-09-19T12:47:46.874Z</time>
      </trkpt>
      <trkpt lat="42.79049" lon="42.73393">
        <ele>769.55613</ele>
        <time>2021-09-19T12:48:41.871Z</time>
      </trkpt>
      <trkpt lat="42.78924" lon="42.73154">
        <ele>766.996783</ele>
        <time>2021-09-19T12:49:36.871Z</time>
      </trkpt>
      <trkpt lat="42.78867" lon="42.72875">
        <ele>762.372842</ele>
        <time>2021-09-19T12:50:32.875Z</time>
      </trkpt>
      <trkpt lat="42.78876" lon="42.72564">
        <ele>758.545568</ele>
        <time>2021-09-19T12:51:25.897Z</time>
      </trkpt>
      <trkpt lat="42.78888" lon="42.72344">
        <ele>755.931654</ele>
        <time>2021-09-19T12:53:24.860Z</time>
      </trkpt>
      <trkpt lat="42.78894" lon="42.72045">
        <ele>756.366484</ele>
        <time>2021-09-19T12:54:39.860Z</time>
      </trkpt>
      <trkpt lat="42.78778" lon="42.71786">
        <ele>754.181903</ele>
        <time>2021-09-19T12:56:06.877Z</time>
      </trkpt>
      <trkpt lat="42.78566" lon="42.71969">
        <ele>749.574897</ele>
        <time>2021-09-19T12:56:46.890Z</time>
      </trkpt>
      <trkpt lat="42.78378" lon="42.72108">
        <ele>743.795233</ele>
        <time>2021-09-19T12:57:28.856Z</time>
      </trkpt>
      <trkpt lat="42.7814" lon="42.7215">
        <ele>735.134371</ele>
        <time>2021-09-19T12:58:08.851Z</time>
      </trkpt>
      <trkpt lat="42.77936" lon="42.72104">
        <ele>728.982186</ele>
        <time>2021-09-19T12:58:48.871Z</time>
      </trkpt>
      <trkpt lat="42.77719" lon="42.72288">
        <ele>733.428713</ele>
        <time>2021-09-19T12:59:28.871Z</time>
      </trkpt>
      <trkpt lat="42.77538" lon="42.72433">
        <ele>739.984856</ele>
        <time>2021-09-19T13:00:26.876Z</time>
      </trkpt>
      <trkpt lat="42.77331" lon="42.72398">
        <ele>736.264571</ele>
        <time>2021-09-19T13:01:19.882Z</time>
      </trkpt>
      <trkpt lat="42.7712" lon="42.7235">
        <ele>722.255726</ele>
        <time>2021-09-19T13:01:42.859Z</time>
      </trkpt>
      <trkpt lat="42.7694" lon="42.72521">
        <ele>709.648655</ele>
        <time>2021-09-19T13:02:34.884Z</time>
      </trkpt>
      <trkpt lat="42.76713" lon="42.72341">
        <ele>711.676854</ele>
        <time>2021-09-19T13:03:14.862Z</time>
      </trkpt>
      <trkpt lat="42.7653" lon="42.72547">
        <ele>716.14133</ele>
        <time>2021-09-19T13:03:56.873Z</time>
      </trkpt>
      <trkpt lat="42.76497" lon="42.72874">
        <ele>702.016264</ele>
        <time>2021-09-19T13:04:36.872Z</time>
      </trkpt>
      <trkpt lat="42.76524" lon="42.73215">
        <ele>696.886334</ele>
        <time>2021-09-19T13:05:20.894Z</time>
      </trkpt>
      <trkpt lat="42.76652" lon="42.73457">
        <ele>698.478775</ele>
        <time>2021-09-19T13:06:02.891Z</time>
      </trkpt>
      <trkpt lat="42.76859" lon="42.73582">
        <ele>707.875138</ele>
        <time>2021-09-19T13:06:54.880Z</time>
      </trkpt>
      <trkpt lat="42.76825" lon="42.73885">
        <ele>698.936608</ele>
        <time>2021-09-19T13:07:34.872Z</time>
      </trkpt>
      <trkpt lat="42.76638" lon="42.74191">
        <ele>691.792263</ele>
        <time>2021-09-19T13:08:14.898Z</time>
      </trkpt>
      <trkpt lat="42.76532" lon="42.74462">
        <ele>685.798082</ele>
        <time>2021-09-19T13:08:58.868Z</time>
      </trkpt>
      <trkpt lat="42.76355" lon="42.74629">
        <ele>686.560402</ele>
        <time>2021-09-19T13:09:41.868Z</time>
      </trkpt>
      <trkpt lat="42.76222" lon="42.7484">
        <ele>686.765943</ele>
        <time>2021-09-19T13:10:29.851Z</time>
      </trkpt>
      <trkpt lat="42.76128" lon="42.75087">
        <ele>689.918405</ele>
        <time>2021-09-19T13:12:06.865Z</time>
      </trkpt>
      <trkpt lat="42.75939" lon="42.75331">
        <ele>682.431223</ele>
        <time>2021-09-19T13:12:41.872Z</time>
      </trkpt>
      <trkpt lat="42.7566" lon="42.7534">
        <ele>689.990284</ele>
        <time>2021-09-19T13:13:19.856Z</time>
      </trkpt>
      <trkpt lat="42.75507" lon="42.75546">
        <ele>682.248778</ele>
        <time>2021-09-19T13:14:25.882Z</time>
      </trkpt>
      <trkpt lat="42.75336" lon="42.75743">
        <ele>694.816475</ele>
        <time>2021-09-19T13:16:04.875Z</time>
      </trkpt>
      <trkpt lat="42.75034" lon="42.75799">
        <ele>700.160115</ele>
        <time>2021-09-19T13:16:44.870Z</time>
      </trkpt>
      <trkpt lat="42.74789" lon="42.75925">
        <ele>691.71696</ele>
        <time>2021-09-19T13:17:23.864Z</time>
      </trkpt>
      <trkpt lat="42.74586" lon="42.75853">
        <ele>674.795578</ele>
        <time>2021-09-19T13:18:43.869Z</time>
      </trkpt>
      <trkpt lat="42.74457" lon="42.76055">
        <ele>685.668744</ele>
        <time>2021-09-19T13:20:07.876Z</time>
      </trkpt>
      <trkpt lat="42.74264" lon="42.75826">
        <ele>674.586214</ele>
        <time>2021-09-19T13:20:49.873Z</time>
      </trkpt>
      <trkpt lat="42.74043" lon="42.75732">
        <ele>652.828111</ele>
        <time>2021-09-19T13:21:14.854Z</time>
      </trkpt>
      <trkpt lat="42.73824" lon="42.75686">
        <ele>632.059729</ele>
        <time>2021-09-19T13:21:42.868Z</time>
      </trkpt>
      <trkpt lat="42.73622" lon="42.75661">
        <ele>637.821775</ele>
        <time>2021-09-19T13:22:58.864Z</time>
      </trkpt>
      <trkpt lat="42.73428" lon="42.75509">
        <ele>639.294264</ele>
        <time>2021-09-19T13:23:33.871Z</time>
      </trkpt>
      <trkpt lat="42.73185" lon="42.75518">
        <ele>631.206678</ele>
        <time>2021-09-19T13:24:04.861Z</time>
      </trkpt>
      <trkpt lat="42.73005" lon="42.75807">
        <ele>617.060292</ele>
        <time>2021-09-19T13:24:44.873Z</time>
      </trkpt>
      <trkpt lat="42.7291" lon="42.76062">
        <ele>616.298308</ele>
        <time>2021-09-19T13:25:35.877Z</time>
      </trkpt>
      <trkpt lat="42.72721" lon="42.76133">
        <ele>613.558954</ele>
        <time>2021-09-19T13:26:16.866Z</time>
      </trkpt>
      <trkpt lat="42.72528" lon="42.76015">
        <ele>613.333986</ele>
        <time>2021-09-19T13:27:09.888Z</time>
      </trkpt>
      <trkpt lat="42.72313" lon="42.76027">
        <ele>604.978476</ele>
        <time>2021-09-19T13:27:51.876Z</time>
      </trkpt>
      <trkpt lat="42.72071" lon="42.75966">
        <ele>608.218435</ele>
        <time>2021-09-19T13:28:36.907Z</time>
      </trkpt>
      <trkpt lat="42.71837" lon="42.76052">
        <ele>600.646663</ele>
        <time>2021-09-19T13:29:16.889Z</time>
      </trkpt>
      <trkpt lat="42.71597" lon="42.76027">
        <ele>597.477221</ele>
        <time>2021-09-19T13:29:57.881Z</time>
      </trkpt>
      <trkpt lat="42.71354" lon="42.76114">
        <ele>594.384189</ele>
        <time>2021-09-19T13:30:39.856Z</time>
      </trkpt>
      <trkpt lat="42.71141" lon="42.7605">
        <ele>602.801025</ele>
        <time>2021-09-19T13:31:39.866Z</time>
      </trkpt>
      <trkpt lat="42.70927" lon="42.76023">
        <ele>598.368348</ele>
        <time>2021-09-19T13:37:58.875Z</time>
      </trkpt>
      <trkpt lat="42.70827" lon="42.76265">
        <ele>600.512555</ele>
        <time>2021-09-19T13:38:51.871Z</time>
      </trkpt>
      <trkpt lat="42.707" lon="42.76547">
        <ele>593.736571</ele>
        <time>2021-09-19T13:39:40.882Z</time>
      </trkpt>
      <trkpt lat="42.70447" lon="42.76568">
        <ele>582.605654</ele>
        <time>2021-09-19T13:40:13.869Z</time>
      </trkpt>
      <trkpt lat="42.70225" lon="42.76571">
        <ele>588.547384</ele>
        <time>2021-09-19T13:41:20.875Z</time>
      </trkpt>
      <trkpt lat="42.7004" lon="42.76436">
        <ele>591.157058</ele>
        <time>2021-09-19T13:42:28.869Z</time>
      </trkpt>
      <trkpt lat="42.69941" lon="42.76107">
        <ele>583.973136</ele>
        <time>2021-09-19T13:43:10.881Z</time>
      </trkpt>
      <trkpt lat="42.69646" lon="42.76063">
        <ele>572.642565</ele>
        <time>2021-09-19T13:43:49.877Z</time>
      </trkpt>
      <trkpt lat="42.69404" lon="42.76063">
        <ele>567.881307</ele>
        <time>2021-09-19T13:44:29.865Z</time>
      </trkpt>
      <trkpt lat="42.69206" lon="42.76086">
        <ele>569.528812</ele>
        <time>2021-09-19T13:45:10.873Z</time>
      </trkpt>
      <trkpt lat="42.68994" lon="42.76085">
        <ele>568.947564</ele>
        <time>2021-09-19T13:46:01.881Z</time>
      </trkpt>
      <trkpt lat="42.68804" lon="42.76201">
        <ele>568.293766</ele>
        <time>2021-09-19T13:46:41.868Z</time>
      </trkpt>
      <trkpt lat="42.68618" lon="42.76325">
        <ele>568.587978</ele>
        <time>2021-09-19T13:47:29.870Z</time>
      </trkpt>
      <trkpt lat="42.68455" lon="42.76535">
        <ele>570.040836</ele>
        <time>2021-09-19T13:48:14.877Z</time>
      </trkpt>
      <trkpt lat="42.68405" lon="42.76757">
        <ele>584.140131</ele>
        <time>2021-09-19T13:50:40.904Z</time>
      </trkpt>
      <trkpt lat="42.68197" lon="42.76903">
        <ele>581.683553</ele>
        <time>2021-09-19T13:51:53.900Z</time>
      </trkpt>
      <trkpt lat="42.67962" lon="42.76834">
        <ele>567.326951</ele>
        <time>2021-09-19T13:52:17.883Z</time>
      </trkpt>
      <trkpt lat="42.67731" lon="42.76724">
        <ele>558.551994</ele>
        <time>2021-09-19T13:52:51.896Z</time>
      </trkpt>
      <trkpt lat="42.67532" lon="42.76721">
        <ele>564.006913</ele>
        <time>2021-09-19T13:54:31.871Z</time>
      </trkpt>
      <trkpt lat="42.67324" lon="42.7673">
        <ele>564.919932</ele>
        <time>2021-09-19T13:55:24.907Z</time>
      </trkpt>
      <trkpt lat="42.67117" lon="42.7679">
        <ele>568.392795</ele>
        <time>2021-09-19T13:56:45.859Z</time>
      </trkpt>
      <trkpt lat="42.66877" lon="42.76855">
        <ele>557.364626</ele>
        <time>2021-09-19T13:57:20.881Z</time>
      </trkpt>
      <trkpt lat="42.66648" lon="42.76755">
        <ele>546.156084</ele>
        <time>2021-09-19T13:58:04.867Z</time>
      </trkpt>
      <trkpt lat="42.66421" lon="42.76847">
        <ele>545.296805</ele>
        <time>2021-09-19T13:59:15.875Z</time>
      </trkpt>
      <trkpt lat="42.6623" lon="42.76818">
        <ele>542.305468</ele>
        <time>2021-09-19T13:59:35.902Z</time>
      </trkpt>
      <trkpt lat="42.66018" lon="42.76827">
        <ele>545.91654</ele>
        <time>2021-09-19T14:00:38.868Z</time>
      </trkpt>
      <trkpt lat="42.6583" lon="42.76909">
        <ele>551.16584</ele>
        <time>2021-09-19T14:02:04.867Z</time>
      </trkpt>
      <trkpt lat="42.65682" lon="42.77121">
        <ele>549.694422</ele>
        <time>2021-09-19T14:02:50.873Z</time>
      </trkpt>
      <trkpt lat="42.65523" lon="42.77373">
        <ele>541.242451</ele>
        <time>2021-09-19T14:03:26.870Z</time>
      </trkpt>
      <trkpt lat="42.65388" lon="42.77238">
        <ele>533.494714</ele>
        <time>2021-09-19T14:11:17.874Z</time>
      </trkpt>
      <trkpt lat="42.65173" lon="42.77163">
        <ele>521.246546</ele>
        <time>2021-09-19T14:12:05.904Z</time>
      </trkpt>
      <trkpt lat="42.64976" lon="42.77057">
        <ele>520.114583</ele>
        <time>2021-09-19T14:12:49.875Z</time>
      </trkpt>
      <trkpt lat="42.64802" lon="42.76883">
        <ele>521.80735</ele>
        <time>2021-09-19T14:13:34.889Z</time>
      </trkpt>
      <trkpt lat="42.64636" lon="42.76702">
        <ele>516.70493</ele>
        <time>2021-09-19T14:14:35.893Z</time>
      </trkpt>
      <trkpt lat="42.6448" lon="42.76476">
        <ele>513.82764</ele>
        <time>2021-09-19T14:15:18.873Z</time>
      </trkpt>
      <trkpt lat="42.64261" lon="42.76345">
        <ele>510.314858</ele>
        <time>2021-09-19T14:16:15.892Z</time>
      </trkpt>
      <trkpt lat="42.64073" lon="42.76162">
        <ele>510.768101</ele>
        <time>2021-09-19T14:17:14.908Z</time>
      </trkpt>
      <trkpt lat="42.63889" lon="42.75964">
        <ele>510.955905</ele>
        <time>2021-09-19T14:18:11.870Z</time>
      </trkpt>
      <trkpt lat="42.63696" lon="42.75823">
        <ele>508.912859</ele>
        <time>2021-09-19T14:19:16.871Z</time>
      </trkpt>
      <trkpt lat="42.63474" lon="42.75699">
        <ele>505.739136</ele>
        <time>2021-09-19T14:19:58.880Z</time>
      </trkpt>
      <trkpt lat="42.63385" lon="42.75438">
        <ele>507.932222</ele>
        <time>2021-09-19T14:20:51.887Z</time>
      </trkpt>
      <trkpt lat="42.63246" lon="42.75181">
        <ele>507.774605</ele>
        <time>2021-09-19T14:21:48.884Z</time>
      </trkpt>
      <trkpt lat="42.631" lon="42.74956">
        <ele>506.554333</ele>
        <time>2021-09-19T14:22:39.882Z</time>
      </trkpt>
      <trkpt lat="42.62931" lon="42.74684">
        <ele>496.82968</ele>
        <time>2021-09-19T14:23:19.875Z</time>
      </trkpt>
      <trkpt lat="42.62772" lon="42.74431">
        <ele>491.22059</ele>
        <time>2021-09-19T14:24:01.891Z</time>
      </trkpt>
      <trkpt lat="42.62628" lon="42.74169">
        <ele>492.99433</ele>
        <time>2021-09-19T14:24:48.895Z</time>
      </trkpt>
      <trkpt lat="42.62485" lon="42.73952">
        <ele>499.615984</ele>
        <time>2021-09-19T14:25:47.884Z</time>
      </trkpt>
      <trkpt lat="42.62337" lon="42.7375">
        <ele>502.182651</ele>
        <time>2021-09-19T14:26:55.889Z</time>
      </trkpt>
      <trkpt lat="42.62241" lon="42.73518">
        <ele>500.515737</ele>
        <time>2021-09-19T14:28:17.904Z</time>
      </trkpt>
      <trkpt lat="42.61978" lon="42.73443">
        <ele>488.260559</ele>
        <time>2021-09-19T14:28:57.885Z</time>
      </trkpt>
      <trkpt lat="42.61801" lon="42.73339">
        <ele>476.025176</ele>
        <time>2021-09-19T14:29:17.937Z</time>
      </trkpt>
      <trkpt lat="42.61573" lon="42.73123">
        <ele>469.514595</ele>
        <time>2021-09-19T14:29:57.889Z</time>
      </trkpt>
      <trkpt lat="42.61406" lon="42.72908">
        <ele>466.712598</ele>
        <time>2021-09-19T14:30:40.896Z</time>
      </trkpt>
      <trkpt lat="42.61242" lon="42.72715">
        <ele>469.625392</ele>
        <time>2021-09-19T14:31:29.888Z</time>
      </trkpt>
      <trkpt lat="42.61095" lon="42.72528">
        <ele>467.67965</ele>
        <time>2021-09-19T14:32:11.891Z</time>
      </trkpt>
      <trkpt lat="42.60941" lon="42.72338">
        <ele>465.976727</ele>
        <time>2021-09-19T14:32:52.892Z</time>
      </trkpt>
      <trkpt lat="42.60782" lon="42.72139">
        <ele>464.115056</ele>
        <time>2021-09-19T14:33:37.883Z</time>
      </trkpt>
      <trkpt lat="42.60633" lon="42.71951">
        <ele>463.268764</ele>
        <time>2021-09-19T14:34:21.927Z</time>
      </trkpt>
      <trkpt lat="42.60466" lon="42.71751">
        <ele>460.024643</ele>
        <time>2021-09-19T14:35:12.872Z</time>
      </trkpt>
      <trkpt lat="42.60277" lon="42.71551">
        <ele>460.742347</ele>
        <time>2021-09-19T14:36:04.884Z</time>
      </trkpt>
      <trkpt lat="42.60093" lon="42.71433">
        <ele>459.49005</ele>
        <time>2021-09-19T14:36:47.883Z</time>
      </trkpt>
      <trkpt lat="42.59913" lon="42.71244">
        <ele>453.664145</ele>
        <time>2021-09-19T14:37:30.890Z</time>
      </trkpt>
      <trkpt lat="42.59748" lon="42.71065">
        <ele>455.658239</ele>
        <time>2021-09-19T14:38:16.871Z</time>
      </trkpt>
      <trkpt lat="42.59585" lon="42.70889">
        <ele>461.361988</ele>
        <time>2021-09-19T14:39:00.889Z</time>
      </trkpt>
      <trkpt lat="42.59416" lon="42.70705">
        <ele>462.571564</ele>
        <time>2021-09-19T14:39:46.873Z</time>
      </trkpt>
      <trkpt lat="42.59254" lon="42.70532">
        <ele>461.727603</ele>
        <time>2021-09-19T14:41:16.885Z</time>
      </trkpt>
      <trkpt lat="42.59113" lon="42.70256">
        <ele>463.075455</ele>
        <time>2021-09-19T14:42:27.887Z</time>
      </trkpt>
      <trkpt lat="42.58893" lon="42.70114">
        <ele>458.361289</ele>
        <time>2021-09-19T14:43:17.883Z</time>
      </trkpt>
      <trkpt lat="42.58725" lon="42.70233">
        <ele>463.125692</ele>
        <time>2021-09-19T14:45:18.890Z</time>
      </trkpt>
      <trkpt lat="42.58634" lon="42.70122">
        <ele>486.310007</ele>
        <time>2021-09-19T14:57:26.881Z</time>
      </trkpt>
      <trkpt lat="42.58607" lon="42.70272">
        <ele>502.57119</ele>
        <time>2021-09-19T14:59:40.912Z</time>
      </trkpt>
      <trkpt lat="42.58664" lon="42.70528">
        <ele>507.631031</ele>
        <time>2021-09-19T15:01:23.867Z</time>
      </trkpt>
      <trkpt lat="42.58625" lon="42.70763">
        <ele>508.717339</ele>
        <time>2021-09-19T15:03:03.865Z</time>
      </trkpt>
      <trkpt lat="42.58619" lon="42.71021">
        <ele>503.635827</ele>
        <time>2021-09-19T15:04:32.873Z</time>
      </trkpt>
      <trkpt lat="42.58783" lon="42.71079">
        <ele>473.204108</ele>
        <time>2021-09-19T15:06:22.867Z</time>
      </trkpt>
      <trkpt lat="42.58918" lon="42.71264">
        <ele>451.951714</ele>
        <time>2021-09-19T15:08:10.873Z</time>
      </trkpt>
      <trkpt lat="42.58957" lon="42.71497">
        <ele>451.109179</ele>
        <time>2021-09-19T15:09:41.875Z</time>
      </trkpt>
      <trkpt lat="42.59026" lon="42.71676">
        <ele>454.638792</ele>
        <time>2021-09-19T15:11:25.876Z</time>
      </trkpt>
      <trkpt lat="42.5906" lon="42.71773">
        <ele>454.638792</ele>
        <time>2021-09-19T15:17:51.723Z</time>
      </trkpt>
    </trkseg>
  </trk>
</gpx>